地図

経路データ

SID SEASON NUMBER BASIN SUBBASIN NAME ISO_TIME NATURE LAT LON WMO_WIND WMO_PRES WMO_AGENCY TRACK_TYPE DIST2LAND LANDFALL IFLAG USA_AGENCY USA_ATCF_ID USA_LAT USA_LON USA_RECORD USA_STATUS USA_WIND USA_PRES USA_SSHS USA_R34_NE USA_R34_SE USA_R34_SW USA_R34_NW USA_R50_NE USA_R50_SE USA_R50_SW USA_R50_NW USA_R64_NE USA_R64_SE USA_R64_SW USA_R64_NW USA_POCI USA_ROCI USA_RMW USA_EYE TOKYO_LAT TOKYO_LON TOKYO_GRADE TOKYO_WIND TOKYO_PRES TOKYO_R50_DIR TOKYO_R50_LONG TOKYO_R50_SHORT TOKYO_R30_DIR TOKYO_R30_LONG TOKYO_R30_SHORT TOKYO_LAND CMA_LAT CMA_LON CMA_CAT CMA_WIND CMA_PRES HKO_LAT HKO_LON HKO_CAT HKO_WIND HKO_PRES NEWDELHI_LAT NEWDELHI_LON NEWDELHI_GRADE NEWDELHI_WIND NEWDELHI_PRES NEWDELHI_CI NEWDELHI_DP NEWDELHI_POCI REUNION_LAT REUNION_LON REUNION_TYPE REUNION_WIND REUNION_PRES REUNION_TNUM REUNION_CI REUNION_RMW REUNION_R34_NE REUNION_R34_SE REUNION_R34_SW REUNION_R34_NW REUNION_R50_NE REUNION_R50_SE REUNION_R50_SW REUNION_R50_NW REUNION_R64_NE REUNION_R64_SE REUNION_R64_SW REUNION_R64_NW BOM_LAT BOM_LON BOM_TYPE BOM_WIND BOM_PRES BOM_TNUM BOM_CI BOM_RMW BOM_R34_NE BOM_R34_SE BOM_R34_SW BOM_R34_NW BOM_R50_NE BOM_R50_SE BOM_R50_SW BOM_R50_NW BOM_R64_NE BOM_R64_SE BOM_R64_SW BOM_R64_NW BOM_ROCI BOM_POCI BOM_EYE BOM_POS_METHOD BOM_PRES_METHOD NADI_LAT NADI_LON NADI_CAT NADI_WIND NADI_PRES WELLINGTON_LAT WELLINGTON_LON WELLINGTON_WIND WELLINGTON_PRES DS824_LAT DS824_LON DS824_STAGE DS824_WIND DS824_PRES TD9636_LAT TD9636_LON TD9636_STAGE TD9636_WIND TD9636_PRES TD9635_LAT TD9635_LON TD9635_WIND TD9635_PRES TD9635_ROCI NEUMANN_LAT NEUMANN_LON NEUMANN_CLASS NEUMANN_WIND NEUMANN_PRES MLC_LAT MLC_LON MLC_CLASS MLC_WIND MLC_PRES USA_GUST BOM_GUST BOM_GUST_PER REUNION_GUST REUNION_GUST_PER USA_SEAHGT USA_SEARAD_NE USA_SEARAD_SE USA_SEARAD_SW USA_SEARAD_NW STORM_SPEED STORM_DIR
1863217N35284 1863 14 NA NA NOT_NAMED 1863-08-05 06:00:00 ET 34.5000 -76.0000 main 50 49 _____________O -1 34.5000 -76.0000 EX 40 9 54
1863217N35284 1863 14 NA NA NOT_NAMED 1863-08-05 09:00:00 ET 34.7674 -75.5505 main 64 64 _____________P -1 34.7674 -75.5505 EX 40 10 59
1863217N35284 1863 14 NA NA NOT_NAMED 1863-08-05 12:00:00 ET 35.0000 -75.0000 main 92 92 _____________O -1 35.0000 -75.0000 EX 40 11 69
1863217N35284 1863 14 NA NA NOT_NAMED 1863-08-05 15:00:00 ET 35.1726 -74.2873 main 127 127 _____________P -1 35.1726 -74.2873 EX 40 13 76
1863217N35284 1863 14 NA NA NOT_NAMED 1863-08-05 18:00:00 ET 35.3000 -73.5000 main 188 188 _____________O -1 35.3000 -73.5000 EX 40 12 80
1863217N35284 1863 14 NA NA NOT_NAMED 1863-08-05 21:00:00 ET 35.3988 -72.7867 main 247 247 _____________P -1 35.3988 -72.7867 EX 40 12 81
1863217N35284 1863 14 NA NA NOT_NAMED 1863-08-06 00:00:00 ET 35.5000 -72.0000 main 317 317 _____________O -1 35.5000 -72.0000 EX 40 14 80
1863217N35284 1863 14 NA NA NOT_NAMED 1863-08-06 03:00:00 ET 35.6500 -71.0378 main 405 405 _____________P -1 35.6500 -71.0378 EX 40 17 80
1863217N35284 1863 14 NA NA NOT_NAMED 1863-08-06 06:00:00 SS 35.8000 -70.0000 main 494 494 _____________O -1 35.8000 -70.0000 SS 40 17 81
1863217N35284 1863 14 NA NA NOT_NAMED 1863-08-06 09:00:00 SS 35.9063 -69.0144 main 584 584 _____________P -1 35.9063 -69.0144 SS 45 16 83
1863217N35284 1863 14 NA NA NOT_NAMED 1863-08-06 12:00:00 SS 36.0000 -68.0000 main 655 655 _____________O -1 36.0000 -68.0000 SS 50 17 83
1863217N35284 1863 14 NA NA NOT_NAMED 1863-08-06 15:00:00 SS 36.1071 -66.9076 main 678 678 _____________P -1 36.1071 -66.9076 SS 50 18 84
1863217N35284 1863 14 NA NA NOT_NAMED 1863-08-06 18:00:00 SS 36.2000 -65.8000 main 711 711 _____________O -1 36.2000 -65.8000 SS 50 18 85
1863217N35284 1863 14 NA NA NOT_NAMED 1863-08-06 21:00:00 SS 36.2564 -64.7421 main 754 754 _____________P -1 36.2564 -64.7421 SS 50 17 87
1863217N35284 1863 14 NA NA NOT_NAMED 1863-08-07 00:00:00 SS 36.3000 -63.7000 main 809 809 _____________O -1 36.3000 -63.7000 SS 50 17 87
1863217N35284 1863 14 NA NA NOT_NAMED 1863-08-07 03:00:00 SS 36.3491 -62.6499 main 833 822 _____________P -1 36.3491 -62.6499 SS 50 17 87
1863217N35284 1863 14 NA NA NOT_NAMED 1863-08-07 06:00:00 TS 36.4000 -61.6000 main 850 850 _____________O -1 36.4000 -61.6000 TS 50 17 88
1863217N35284 1863 14 NA NA NOT_NAMED 1863-08-07 09:00:00 TS 36.3972 -60.5255 main 888 888 _____________P -1 36.3972 -60.5255 TS 55 17 87
1863217N35284 1863 14 NA NA NOT_NAMED 1863-08-07 12:00:00 TS 36.5000 -59.5000 main 921 920 _____________O -1 36.5000 -59.5000 TS 60 16 74
1863217N35284 1863 14 NA NA NOT_NAMED 1863-08-07 15:00:00 TS 36.8540 -58.5712 main 927 920 _____________P -1 36.8540 -58.5712 TS 60 16 61
1863217N35284 1863 14 NA NA NOT_NAMED 1863-08-07 18:00:00 TS 37.3000 -57.7000 main 923 908 _____________O -1 37.3000 -57.7000 TS 60 16 60
1863217N35284 1863 14 NA NA NOT_NAMED 1863-08-07 21:00:00 TS 37.6491 -56.8485 main 917 901 _____________P -1 37.6491 -56.8485 TS 67 15 63
1863217N35284 1863 14 NA NA NOT_NAMED 1863-08-08 00:00:00 TS 38.0000 -56.0000 main 905 897 _____________O -1 38.0000 -56.0000 HU 75 16 61
1863217N35284 1863 14 NA NA NOT_NAMED 1863-08-08 03:00:00 TS 38.3997 -55.0998 main 903 868 _____________P -1 38.3997 -55.0998 HU 75 16 60
1863217N35284 1863 14 NA NA NOT_NAMED 1863-08-08 06:00:00 TS 38.8000 -54.2000 main 868 833 _____________O -1 38.8000 -54.2000 HU 75 15 62
1863217N35284 1863 14 NA NA NOT_NAMED 1863-08-08 09:00:00 TS 39.1192 -53.3399 main 834 791 _____________P -1 39.1192 -53.3399 HU 75 15 62
1863217N35284 1863 14 NA NA NOT_NAMED 1863-08-08 12:00:00 TS 39.5000 -52.5000 main 791 742 _____________O -1 39.5000 -52.5000 HU 75 16 54
1863217N35284 1863 14 NA NA NOT_NAMED 1863-08-08 15:00:00 TS 40.0692 -51.6575 main 732 683 _____________P -1 40.0692 -51.6575 HU 75 18 47
1863217N35284 1863 14 NA NA NOT_NAMED 1863-08-08 18:00:00 TS 40.7000 -50.8000 main 683 652 _____________O -1 40.7000 -50.8000 HU 75 18 48
1863217N35284 1863 14 NA NA NOT_NAMED 1863-08-08 21:00:00 TS 41.2571 -49.8986 main 645 629 _____________P -1 41.2571 -49.8986 HU 72 17 51
1863217N35284 1863 14 NA NA NOT_NAMED 1863-08-09 00:00:00 TS 41.8000 -49.0000 main 629 615 _____________O -1 41.8000 -49.0000 HU 70 17 50
1863217N35284 1863 14 NA NA NOT_NAMED 1863-08-09 03:00:00 TS 42.3490 -48.1481 main 625 612 _____________P -1 42.3490 -48.1481 HU 70 17 49
1863217N35284 1863 14 NA NA NOT_NAMED 1863-08-09 06:00:00 TS 42.9000 -47.3000 main 619 618 _____________O -1 42.9000 -47.3000 HU 70 15 53
1863217N35284 1863 14 NA NA NOT_NAMED 1863-08-09 09:00:00 TS 43.2673 -46.4810 main 639 639 _____________P -1 43.2673 -46.4810 HU 67 17 50
1863217N35284 1863 14 NA NA NOT_NAMED 1863-08-09 12:00:00 TS 44.0000 -45.5000 main 660 660 _____________O -1 44.0000 -45.5000 HU 65 28 37
1863217N35284 1863 14 NA NA NOT_NAMED 1863-08-09 15:00:00 TS 45.5165 -44.1534 main 677 677 _____________P -1 45.5165 -44.1534 HU 57 41 31
1863217N35284 1863 14 NA NA NOT_NAMED 1863-08-09 18:00:00 TS 47.5000 -42.5000 main 754 _____________O -1 47.5000 -42.5000 TS 50 46 29

IBTrACS Databaseについて

本データベースは、米国NOAAが公開する1842年以降の世界の熱帯低気圧のベストトラックデータアーカイブInternational Best Track Archive for Climate Stewardship (IBTrACS)を、ウェブで閲覧しやすい形式に変換したものです。

最終更新日:2021-10-08